Time;durP1;ratioP1;P1;durP2;ratioP2;P2;SDS_P1;SDS_P2;PMS_P1;PMS_P2;Temp;Humidity;BMP_temperature;BMP_pressure;BME280_temperature;BME280_humidity;BME280_pressure;Samples;Min_cycle;Max_cycle;Signal;HPM_P1;HPM_P2
2021/12/12 00:00:16;;;;;;;;;;;21.30;46.30;;;;;;675747;29;844;-83
2021/12/12 00:00:53;;;;;;;;;;;21.30;46.40;;;;;;683559;28;1366;-83
2021/12/12 00:01:26;;;;;;;;;;;21.20;46.30;;;;;;683645;29;859;-84
2021/12/12 00:01:51;;;;;;;;;;;21.30;46.40;;;;;;683687;28;1425;-84
2021/12/12 00:02:21;;;;;;;;;;;21.20;46.40;;;;;;686359;28;891;-84
2021/12/12 00:02:57;;;;;;;;;;;21.20;46.40;;;;;;686539;28;893;-83
2021/12/12 00:03:31;;;;;;;;;;;21.20;46.40;;;;;;686223;28;870;-84
2021/12/12 00:03:54;;;;;;;;;;;21.20;46.50;;;;;;686081;28;1334;-85
2021/12/12 00:04:16;;;;;;;;;;;21.20;46.50;;;;;;686223;28;810;-84
2021/12/12 00:04:38;;;;;;;;;;;21.20;46.50;;;;;;686289;28;811;-83
2021/12/12 00:05:06;;;;;;;;;;;21.20;46.50;;;;;;686181;28;1373;-84
2021/12/12 00:05:33;;;;;;;;;;;21.20;46.60;;;;;;686385;28;850;-83
2021/12/12 00:05:55;;;;;;;;;;;21.20;46.60;;;;;;686240;28;853;-85
2021/12/12 00:06:18;;;;;;;;;;;21.20;46.60;;;;;;686228;28;839;-84
2021/12/12 00:06:49;;;;;;;;;;;21.20;46.90;;;;;;686266;28;925;-84
2021/12/12 00:07:11;;;;;;;;;;;21.10;46.60;;;;;;686444;28;905;-84
2021/12/12 00:07:32;;;;;;;;;;;21.10;46.60;;;;;;686417;28;1303;-83
2021/12/12 00:07:52;;;;;;;;;;;21.10;46.70;;;;;;686426;28;834;-84
2021/12/12 00:08:14;;;;;;;;;;;21.10;46.60;;;;;;686434;28;1088;-84
2021/12/12 00:08:35;;;;;;;;;;;21.10;46.60;;;;;;686221;28;870;-84
2021/12/12 00:08:59;;;;;;;;;;;21.10;46.70;;;;;;686169;28;993;-84
2021/12/12 00:09:20;;;;;;;;;;;21.10;46.70;;;;;;686137;28;1618;-84
2021/12/12 00:09:44;;;;;;;;;;;21.10;46.70;;;;;;686420;28;803;-84
2021/12/12 00:10:08;;;;;;;;;;;21.10;46.70;;;;;;685975;28;1959;-84
2021/12/12 00:10:30;;;;;;;;;;;21.10;46.80;;;;;;686260;28;902;-81
2021/12/12 00:11:00;;;;;;;;;;;20.10;46.20;;;;;;686129;28;969;-84
2021/12/12 00:11:23;;;;;;;;;;;21.10;46.70;;;;;;683424;29;1404;-84
2021/12/12 00:11:44;;;;;;;;;;;21.10;46.80;;;;;;683622;29;1330;-84
2021/12/12 00:12:13;;;;;;;;;;;21.10;46.80;;;;;;680602;29;1331;-84
2021/12/12 00:12:39;;;;;;;;;;;21.10;46.90;;;;;;680891;29;935;-83
2021/12/12 00:13:06;;;;;;;;;;;21.10;46.80;;;;;;680865;29;899;-83
2021/12/12 00:13:29;;;;;;;;;;;21.10;46.90;;;;;;681014;29;1397;-83
2021/12/12 00:14:01;;;;;;;;;;;21.00;47.90;;;;;;683983;28;476;-84
2021/12/12 00:14:23;;;;;;;;;;;21.00;46.80;;;;;;686179;28;894;-84
2021/12/12 00:14:43;;;;;;;;;;;21.00;46.80;;;;;;686284;28;1327;-83
2021/12/12 00:15:05;;;;;;;;;;;21.00;46.90;;;;;;686234;28;1354;-84
2021/12/12 00:15:25;;;;;;;;;;;21.00;46.80;;;;;;685667;28;926;-84
2021/12/12 00:15:46;;;;;;;;;;;21.00;46.90;;;;;;686451;28;873;-83
2021/12/12 00:16:07;;;;;;;;;;;21.00;46.80;;;;;;686336;28;786;-83
2021/12/12 00:16:28;;;;;;;;;;;21.00;46.80;;;;;;683009;29;1239;-83
2021/12/12 00:16:49;;;;;;;;;;;21.50;47.50;;;;;;680973;29;1376;-83
2021/12/12 00:17:11;;;;;;;;;;;21.00;46.90;;;;;;678799;29;1385;-84
2021/12/12 00:17:31;;;;;;;;;;;21.00;46.90;;;;;;680908;29;791;-83
2021/12/12 00:17:52;;;;;;;;;;;21.00;47.30;;;;;;680839;29;1238;-83
2021/12/12 00:18:13;;;;;;;;;;;21.00;46.80;;;;;;681445;29;810;-82
2021/12/12 00:18:34;;;;;;;;;;;21.00;46.80;;;;;;681349;29;827;-83
2021/12/12 00:18:55;;;;;;;;;;;21.00;47.00;;;;;;683619;29;795;-81
2021/12/12 00:19:26;;;;;;;;;;;21.00;47.00;;;;;;683561;29;846;-81
2021/12/12 00:19:47;;;;;;;;;;;21.00;46.90;;;;;;685391;28;830;-82
2021/12/12 00:20:09;;;;;;;;;;;21.00;46.90;;;;;;686391;28;815;-82
2021/12/12 00:20:31;;;;;;;;;;;21.00;47.00;;;;;;685348;28;1201;-84
2021/12/12 00:20:52;;;;;;;;;;;21.00;46.90;;;;;;685876;28;1444;-83
2021/12/12 00:21:14;;;;;;;;;;;21.00;47.00;;;;;;683488;29;1452;-82
2021/12/12 00:21:39;;;;;;;;;;;21.00;46.90;;;;;;683694;29;1209;-81
2021/12/12 00:22:01;;;;;;;;;;;20.90;46.90;;;;;;680657;29;1193;-83
2021/12/12 00:22:25;;;;;;;;;;;20.80;46.80;;;;;;682329;29;835;-82
2021/12/12 00:22:46;;;;;;;;;;;21.00;47.00;;;;;;683570;29;819;-82
2021/12/12 00:23:07;;;;;;;;;;;21.00;46.90;;;;;;682564;29;1743;-83
2021/12/12 00:23:28;;;;;;;;;;;21.00;46.90;;;;;;683462;29;902;-83
2021/12/12 00:23:48;;;;;;;;;;;21.00;47.00;;;;;;684494;28;890;-83
2021/12/12 00:24:10;;;;;;;;;;;21.00;47.00;;;;;;686293;28;835;-83
2021/12/12 00:24:31;;;;;;;;;;;20.90;46.90;;;;;;682727;29;1332;-81
2021/12/12 00:24:52;;;;;;;;;;;21.00;47.00;;;;;;683917;28;1459;-81
2021/12/12 00:25:13;;;;;;;;;;;21.00;47.00;;;;;;686182;28;1330;-82
2021/12/12 00:25:37;;;;;;;;;;;21.00;47.10;;;;;;686311;28;861;-84
2021/12/12 00:25:58;;;;;;;;;;;20.90;46.90;;;;;;683274;28;1400;-83
2021/12/12 00:26:19;;;;;;;;;;;20.90;47.00;;;;;;684373;28;846;-83
2021/12/12 00:26:40;;;;;;;;;;;21.00;47.00;;;;;;683512;29;1071;-83
2021/12/12 00:27:00;;;;;;;;;;;21.00;47.00;;;;;;683453;29;933;-84
2021/12/12 00:27:21;;;;;;;;;;;20.90;47.10;;;;;;683507;29;874;-82
2021/12/12 00:27:44;;;;;;;;;;;20.90;46.90;;;;;;681351;29;1130;-83
2021/12/12 00:28:05;;;;;;;;;;;20.90;46.90;;;;;;680892;29;1226;-84
2021/12/12 00:28:27;;;;;;;;;;;20.90;46.90;;;;;;681684;29;993;-84
2021/12/12 00:28:48;;;;;;;;;;;21.00;47.00;;;;;;683457;29;1262;-83
2021/12/12 00:29:10;;;;;;;;;;;20.90;47.00;;;;;;680455;29;1345;-84
2021/12/12 00:29:31;;;;;;;;;;;20.90;47.00;;;;;;681912;29;1367;-85
2021/12/12 00:29:52;;;;;;;;;;;20.90;47.00;;;;;;682591;29;1236;-84
2021/12/12 00:30:13;;;;;;;;;;;20.90;47.00;;;;;;680747;29;2030;-85
2021/12/12 00:30:34;;;;;;;;;;;20.90;47.00;;;;;;681552;29;850;-84
2021/12/12 00:30:56;;;;;;;;;;;21.00;47.00;;;;;;684172;28;720;-85
2021/12/12 00:31:18;;;;;;;;;;;20.90;47.00;;;;;;683335;29;906;-85
2021/12/12 00:31:39;;;;;;;;;;;20.90;46.90;;;;;;680534;29;1087;-82
2021/12/12 00:32:01;;;;;;;;;;;20.90;46.90;;;;;;681652;29;870;-82
2021/12/12 00:32:25;;;;;;;;;;;20.90;46.90;;;;;;683305;29;1507;-85
2021/12/12 00:32:46;;;;;;;;;;;21.00;47.10;;;;;;683494;29;893;-85
2021/12/12 00:33:06;;;;;;;;;;;19.80;46.30;;;;;;684723;28;854;-85
2021/12/12 00:33:27;;;;;;;;;;;21.00;47.00;;;;;;687171;28;1375;-85
2021/12/12 00:33:49;;;;;;;;;;;20.90;46.90;;;;;;685302;28;1248;-85
2021/12/12 00:34:10;;;;;;;;;;;20.90;46.90;;;;;;686229;28;810;-85
2021/12/12 00:34:35;;;;;;;;;;;20.90;47.00;;;;;;682692;29;898;-84
2021/12/12 00:34:59;;;;;;;;;;;20.90;46.90;;;;;;680879;29;866;-84
2021/12/12 00:35:20;;;;;;;;;;;20.90;46.90;;;;;;682377;29;894;-84
2021/12/12 00:35:41;;;;;;;;;;;20.90;46.90;;;;;;685225;28;779;-83
2021/12/12 00:36:02;;;;;;;;;;;20.90;46.90;;;;;;686243;28;806;-85
2021/12/12 00:36:23;;;;;;;;;;;20.90;46.90;;;;;;684740;28;1227;-84
2021/12/12 00:36:44;;;;;;;;;;;20.90;46.90;;;;;;686271;28;823;-85
2021/12/12 00:37:07;;;;;;;;;;;20.90;46.90;;;;;;686271;28;831;-85
2021/12/12 00:37:28;;;;;;;;;;;20.90;46.90;;;;;;686160;28;941;-85
2021/12/12 00:37:52;;;;;;;;;;;20.90;46.90;;;;;;683352;29;831;-85
2021/12/12 00:38:15;;;;;;;;;;;20.90;46.90;;;;;;684543;28;1499;-85
2021/12/12 00:38:36;;;;;;;;;;;20.90;46.90;;;;;;683442;29;1066;-84
2021/12/12 00:38:58;;;;;;;;;;;20.90;46.90;;;;;;683570;29;819;-84
2021/12/12 00:39:20;;;;;;;;;;;20.90;47.00;;;;;;683365;29;839;-84
2021/12/12 00:39:44;;;;;;;;;;;20.90;46.90;;;;;;683591;29;893;-84
2021/12/12 00:40:23;;;;;;;;;;;20.90;46.90;;;;;;683337;29;1378;-84
2021/12/12 00:40:45;;;;;;;;;;;20.90;46.90;;;;;;686219;28;954;-82
2021/12/12 00:41:13;;;;;;;;;;;20.90;46.90;;;;;;686200;28;826;-84
2021/12/12 00:41:37;;;;;;;;;;;20.90;46.90;;;;;;686082;28;1244;-83
2021/12/12 00:42:03;;;;;;;;;;;20.90;46.90;;;;;;686182;28;815;-84
2021/12/12 00:42:25;;;;;;;;;;;20.90;46.90;;;;;;686161;28;799;-84
2021/12/12 00:42:46;;;;;;;;;;;20.90;46.90;;;;;;686121;28;878;-84
2021/12/12 00:43:11;;;;;;;;;;;20.90;46.90;;;;;;686204;28;841;-83
2021/12/12 00:43:34;;;;;;;;;;;20.90;46.90;;;;;;686090;28;1398;-84
2021/12/12 00:43:55;;;;;;;;;;;20.90;46.90;;;;;;686426;28;898;-84
2021/12/12 00:44:16;;;;;;;;;;;20.90;46.90;;;;;;686382;28;855;-86
2021/12/12 00:44:38;;;;;;;;;;;20.90;46.90;;;;;;686436;28;882;-83
2021/12/12 00:45:00;;;;;;;;;;;20.90;46.90;;;;;;686021;28;1459;-84
2021/12/12 00:45:21;;;;;;;;;;;20.90;47.00;;;;;;685972;28;1579;-84
2021/12/12 00:45:42;;;;;;;;;;;20.90;46.80;;;;;;683496;29;882;-84
2021/12/12 00:46:04;;;;;;;;;;;20.90;46.80;;;;;;683546;29;783;-82
2021/12/12 00:46:25;;;;;;;;;;;20.90;46.90;;;;;;683364;29;894;-85
2021/12/12 00:46:47;;;;;;;;;;;20.90;46.80;;;;;;683533;29;795;-85
2021/12/12 00:47:09;;;;;;;;;;;20.90;46.80;;;;;;680889;29;934;-84
2021/12/12 00:47:30;;;;;;;;;;;20.90;46.80;;;;;;681689;29;871;-84
2021/12/12 00:47:51;;;;;;;;;;;20.90;48.00;;;;;;683451;29;811;-84
2021/12/12 00:48:11;;;;;;;;;;;20.90;46.80;;;;;;684355;28;886;-83
2021/12/12 00:48:34;;;;;;;;;;;20.90;46.80;;;;;;683355;29;875;-84
2021/12/12 00:48:55;;;;;;;;;;;20.90;46.80;;;;;;684196;28;791;-85
2021/12/12 00:49:17;;;;;;;;;;;20.90;46.80;;;;;;686090;28;802;-84
2021/12/12 00:49:39;;;;;;;;;;;20.90;46.80;;;;;;686222;28;905;-84
2021/12/12 00:50:00;;;;;;;;;;;20.90;46.90;;;;;;683408;29;1298;-82
2021/12/12 00:50:27;;;;;;;;;;;20.90;46.90;;;;;;684268;28;1955;-85
2021/12/12 00:50:47;;;;;;;;;;;20.80;46.80;;;;;;685840;28;1534;-84
2021/12/12 00:51:09;;;;;;;;;;;20.90;46.80;;;;;;686127;28;984;-85
2021/12/12 00:51:32;;;;;;;;;;;20.90;46.80;;;;;;685993;28;1605;-87
2021/12/12 00:51:53;;;;;;;;;;;20.90;46.80;;;;;;686038;28;1099;-93
2021/12/12 00:52:15;;;;;;;;;;;20.90;46.80;;;;;;686362;28;787;-92
2021/12/12 00:52:36;;;;;;;;;;;20.90;46.70;;;;;;683567;29;1270;-92
2021/12/12 00:52:59;;;;;;;;;;;20.90;46.80;;;;;;684034;29;764;-86
2021/12/12 00:53:21;;;;;;;;;;;20.80;47.00;;;;;;683599;29;764;-91
2021/12/12 00:53:42;;;;;;;;;;;20.80;47.10;;;;;;684607;28;842;-84
2021/12/12 00:54:04;;;;;;;;;;;20.90;47.10;;;;;;683425;29;1140;-93
2021/12/12 00:54:30;;;;;;;;;;;20.80;47.00;;;;;;681426;29;1219;-90
2021/12/12 00:54:51;;;;;;;;;;;20.80;47.10;;;;;;683514;29;1284;-89
2021/12/12 00:55:12;;;;;;;;;;;20.80;47.00;;;;;;680908;29;1231;-86
2021/12/12 00:55:37;;;;;;;;;;;20.80;47.00;;;;;;678157;29;899;-81
2021/12/12 00:55:58;;;;;;;;;;;20.80;47.00;;;;;;679862;29;1534;-82
2021/12/12 00:56:19;;;;;;;;;;;20.80;46.90;;;;;;680818;29;819;-82
2021/12/12 00:56:40;;;;;;;;;;;20.90;47.10;;;;;;678212;29;1186;-83
2021/12/12 00:57:03;;;;;;;;;;;20.80;46.90;;;;;;676573;29;1245;-84
2021/12/12 00:57:23;;;;;;;;;;;20.80;46.90;;;;;;676993;29;1113;-89
2021/12/12 00:57:50;;;;;;;;;;;20.80;47.10;;;;;;676233;29;1394;-85
2021/12/12 00:58:12;;;;;;;;;;;20.80;47.30;;;;;;678397;29;847;-87
2021/12/12 00:58:33;;;;;;;;;;;20.70;47.60;;;;;;679904;29;1303;-91
2021/12/12 00:58:54;;;;;;;;;;;20.80;48.10;;;;;;679880;29;1368;-91
2021/12/12 00:59:14;;;;;;;;;;;20.20;48.30;;;;;;681317;29;1413;-84
2021/12/12 00:59:35;;;;;;;;;;;20.80;49.00;;;;;;680305;29;1453;-89
2021/12/12 00:59:56;;;;;;;;;;;20.80;48.60;;;;;;686162;28;1366;-86
2021/12/12 01:00:17;;;;;;;;;;;20.80;49.00;;;;;;686195;28;1312;-87
2021/12/12 01:00:48;;;;;;;;;;;20.80;49.10;;;;;;682191;29;1331;-87
2021/12/12 01:01:14;;;;;;;;;;;20.80;49.20;;;;;;679970;29;1499;-83
2021/12/12 01:01:39;;;;;;;;;;;20.80;49.20;;;;;;683481;29;1244;-84
2021/12/12 01:01:59;;;;;;;;;;;20.80;49.20;;;;;;683525;28;1384;-85
2021/12/12 01:02:22;;;;;;;;;;;20.20;48.30;;;;;;686240;28;1274;-85
2021/12/12 01:02:43;;;;;;;;;;;20.80;48.60;;;;;;688722;28;1145;-86
2021/12/12 01:03:07;;;;;;;;;;;20.80;48.90;;;;;;688828;28;842;-85
2021/12/12 01:03:32;;;;;;;;;;;20.80;48.40;;;;;;686123;28;1293;-87
2021/12/12 01:03:55;;;;;;;;;;;20.80;48.40;;;;;;683430;29;1233;-89
2021/12/12 01:04:20;;;;;;;;;;;20.80;48.50;;;;;;684814;28;1429;-85
2021/12/12 01:04:43;;;;;;;;;;;20.80;48.20;;;;;;683579;28;1194;-88
2021/12/12 01:05:05;;;;;;;;;;;20.80;49.20;;;;;;684868;28;1219;-89
2021/12/12 01:05:26;;;;;;;;;;;20.80;48.50;;;;;;685934;28;1230;-86
2021/12/12 01:05:47;;;;;;;;;;;20.80;48.10;;;;;;686179;28;1377;-86
2021/12/12 01:06:09;;;;;;;;;;;20.80;48.30;;;;;;685971;28;1346;-89
2021/12/12 01:06:29;;;;;;;;;;;20.80;48.30;;;;;;682436;29;1263;-91
2021/12/12 01:06:51;;;;;;;;;;;20.80;48.50;;;;;;681890;29;858;-89
2021/12/12 01:07:15;;;;;;;;;;;20.80;48.20;;;;;;686859;28;1482;-89
2021/12/12 01:07:38;;;;;;;;;;;20.80;48.00;;;;;;688978;28;1294;-91
2021/12/12 01:07:59;;;;;;;;;;;20.80;48.10;;;;;;688974;28;839;-90
2021/12/12 01:08:20;;;;;;;;;;;20.70;48.10;;;;;;688884;28;965;-89
2021/12/12 01:08:42;;;;;;;;;;;20.80;48.10;;;;;;689187;28;842;-92
2021/12/12 01:09:05;;;;;;;;;;;20.80;48.20;;;;;;686415;28;1433;-91
2021/12/12 01:09:28;;;;;;;;;;;20.80;48.00;;;;;;684943;28;1118;-90
2021/12/12 01:09:51;;;;;;;;;;;20.80;48.10;;;;;;680915;29;1235;-91
2021/12/12 01:10:32;;;;;;;;;;;20.70;48.10;;;;;;680600;29;1962;-83
2021/12/12 01:11:12;;;;;;;;;;;20.80;48.20;;;;;;681719;29;1045;-88
2021/12/12 01:11:39;;;;;;;;;;;20.80;47.80;;;;;;682887;29;1174;-85
2021/12/12 01:12:04;;;;;;;;;;;20.80;47.70;;;;;;681673;29;902;-83
2021/12/12 01:12:28;;;;;;;;;;;20.70;47.80;;;;;;683238;29;1340;-85
2021/12/12 01:12:49;;;;;;;;;;;20.80;47.70;;;;;;685299;28;1700;-84
2021/12/12 01:13:11;;;;;;;;;;;20.70;47.50;;;;;;683433;29;1268;-87
2021/12/12 01:13:31;;;;;;;;;;;20.80;47.50;;;;;;681095;29;1326;-84
2021/12/12 01:13:53;;;;;;;;;;;20.70;47.30;;;;;;679168;29;1033;-85
2021/12/12 01:14:15;;;;;;;;;;;20.70;47.40;;;;;;679184;29;949;-84
2021/12/12 01:14:40;;;;;;;;;;;20.60;47.30;;;;;;681574;29;1339;-84
2021/12/12 01:15:13;;;;;;;;;;;20.70;47.60;;;;;;684827;28;839;-85
2021/12/12 01:15:38;;;;;;;;;;;20.80;47.40;;;;;;683752;29;1551;-86
2021/12/12 01:16:05;;;;;;;;;;;20.80;47.40;;;;;;680262;29;1247;-84
2021/12/12 01:16:36;;;;;;;;;;;20.70;47.60;;;;;;682046;29;1230;-84
2021/12/12 01:17:08;;;;;;;;;;;20.70;47.40;;;;;;680626;29;1106;-87
2021/12/12 01:17:37;;;;;;;;;;;20.70;47.30;;;;;;682652;29;855;-90
2021/12/12 01:17:59;;;;;;;;;;;20.70;47.30;;;;;;681222;29;1211;-88
2021/12/12 01:18:25;;;;;;;;;;;20.70;48.60;;;;;;679963;29;1429;-88
2021/12/12 01:18:47;;;;;;;;;;;20.70;48.00;;;;;;681956;29;1331;-91
2021/12/12 01:19:11;;;;;;;;;;;20.70;48.70;;;;;;683579;29;1302;-91
2021/12/12 01:19:33;;;;;;;;;;;20.70;49.80;;;;;;683438;29;1173;-91
2021/12/12 01:19:56;;;;;;;;;;;20.70;50.70;;;;;;685523;28;1183;-92
2021/12/12 01:20:38;;;;;;;;;;;20.80;50.70;;;;;;685914;28;1252;-90
2021/12/12 01:21:01;;;;;;;;;;;20.80;50.70;;;;;;682081;29;1396;-87
2021/12/12 01:21:24;;;;;;;;;;;20.70;50.70;;;;;;684771;28;1069;-87
2021/12/12 01:21:48;;;;;;;;;;;20.80;48.80;;;;;;686131;28;1061;-89
2021/12/12 01:22:16;;;;;;;;;;;20.70;48.50;;;;;;687534;28;1243;-86
2021/12/12 01:22:37;;;;;;;;;;;20.70;48.10;;;;;;686161;28;1112;-86
2021/12/12 01:23:04;;;;;;;;;;;20.70;48.40;;;;;;686090;28;1315;-84
2021/12/12 01:23:27;;;;;;;;;;;20.70;48.10;;;;;;686184;28;807;-84
2021/12/12 01:23:49;;;;;;;;;;;20.70;48.10;;;;;;686019;28;870;-82
2021/12/12 01:24:24;;;;;;;;;;;20.70;48.40;;;;;;691632;28;1126;-84
2021/12/12 01:24:46;;;;;;;;;;;20.70;48.10;;;;;;688737;28;1378;-81
2021/12/12 01:25:16;;;;;;;;;;;20.70;49.00;;;;;;684986;28;1346;-82
2021/12/12 01:25:43;;;;;;;;;;;20.70;47.90;;;;;;680947;29;823;-86
2021/12/12 01:26:04;;;;;;;;;;;20.70;47.80;;;;;;679657;29;1218;-83
2021/12/12 01:26:28;;;;;;;;;;;20.70;47.90;;;;;;678004;29;910;-85
2021/12/12 01:26:49;;;;;;;;;;;20.70;47.90;;;;;;680763;29;803;-84
2021/12/12 01:27:10;;;;;;;;;;;20.70;47.80;;;;;;684306;28;1292;-83
2021/12/12 01:27:31;;;;;;;;;;;20.70;47.80;;;;;;686142;28;807;-85
2021/12/12 01:27:52;;;;;;;;;;;20.70;47.80;;;;;;686885;28;831;-85
2021/12/12 01:28:15;;;;;;;;;;;20.70;48.00;;;;;;686994;28;1256;-84
2021/12/12 01:28:38;;;;;;;;;;;20.70;48.20;;;;;;686066;28;1244;-84
2021/12/12 01:28:59;;;;;;;;;;;20.70;47.90;;;;;;682875;29;1249;-83
2021/12/12 01:29:20;;;;;;;;;;;20.70;48.10;;;;;;680680;29;1341;-83
2021/12/12 01:29:41;;;;;;;;;;;20.70;48.90;;;;;;680843;29;855;-85
2021/12/12 01:30:02;;;;;;;;;;;20.70;48.20;;;;;;681852;29;823;-85
2021/12/12 01:30:23;;;;;;;;;;;20.70;48.20;;;;;;681489;29;1898;-83
2021/12/12 01:30:44;;;;;;;;;;;20.70;48.20;;;;;;681426;29;922;-83
2021/12/12 01:31:08;;;;;;;;;;;20.70;48.20;;;;;;681087;29;1081;-85
2021/12/12 01:31:32;;;;;;;;;;;20.70;48.00;;;;;;683488;29;815;-84
2021/12/12 01:31:54;;;;;;;;;;;20.70;48.20;;;;;;680643;29;1338;-83
2021/12/12 01:32:25;;;;;;;;;;;20.70;48.10;;;;;;682062;29;1472;-83
2021/12/12 01:32:47;;;;;;;;;;;20.70;48.20;;;;;;683336;29;918;-84
2021/12/12 01:33:09;;;;;;;;;;;20.70;48.70;;;;;;683491;29;799;-85
2021/12/12 01:33:35;;;;;;;;;;;20.70;48.90;;;;;;683309;29;1236;-84
2021/12/12 01:34:09;;;;;;;;;;;20.70;48.40;;;;;;680764;29;839;-83
2021/12/12 01:34:31;;;;;;;;;;;20.70;48.40;;;;;;683777;28;921;-82
2021/12/12 01:34:52;;;;;;;;;;;20.70;48.30;;;;;;685969;28;828;-82
2021/12/12 01:35:16;;;;;;;;;;;20.70;48.40;;;;;;686080;28;838;-81
2021/12/12 01:35:39;;;;;;;;;;;20.70;48.30;;;;;;686075;28;784;-82
2021/12/12 01:36:05;;;;;;;;;;;20.70;48.30;;;;;;685944;28;807;-85
2021/12/12 01:36:42;;;;;;;;;;;20.00;47.80;;;;;;686003;28;834;-82
2021/12/12 01:39:12;;;;;;;;;;;20.70;48.50;;;;;;683362;29;625;-81
2021/12/12 01:39:38;;;;;;;;;;;20.70;48.80;;;;;;680445;29;1257;-88
2021/12/12 01:40:04;;;;;;;;;;;20.70;48.60;;;;;;680682;29;1316;-84
2021/12/12 01:40:26;;;;;;;;;;;20.70;48.90;;;;;;678056;29;902;-82
2021/12/12 01:40:49;;;;;;;;;;;20.70;49.40;;;;;;678097;29;831;-84
2021/12/12 01:41:10;;;;;;;;;;;20.70;50.30;;;;;;678757;29;1407;-83
2021/12/12 01:42:01;;;;;;;;;;;20.70;50.70;;;;;;682754;29;799;-84
2021/12/12 01:42:24;;;;;;;;;;;20.70;51.00;;;;;;685193;28;843;-83
2021/12/12 01:43:08;;;;;;;;;;;20.70;51.00;;;;;;685717;28;1293;-83
2021/12/12 01:43:40;;;;;;;;;;;20.70;51.00;;;;;;677923;29;1086;-83
2021/12/12 01:44:04;;;;;;;;;;;20.70;50.80;;;;;;678030;29;973;-83
2021/12/12 01:44:32;;;;;;;;;;;19.50;50.00;;;;;;677876;29;968;-84
2021/12/12 01:44:57;;;;;;;;;;;20.70;50.60;;;;;;677991;29;823;-84
2021/12/12 01:45:24;;;;;;;;;;;20.70;50.60;;;;;;677978;29;823;-84
2021/12/12 01:45:46;;;;;;;;;;;20.70;50.60;;;;;;677881;29;835;-84
2021/12/12 01:46:12;;;;;;;;;;;20.70;50.60;;;;;;678021;29;931;-83
2021/12/12 01:46:35;;;;;;;;;;;20.70;50.40;;;;;;678097;29;843;-85
2021/12/12 01:46:59;;;;;;;;;;;20.70;50.50;;;;;;677919;29;1114;-83
2021/12/12 01:47:23;;;;;;;;;;;20.70;50.40;;;;;;677985;29;819;-84
2021/12/12 01:47:46;;;;;;;;;;;20.70;50.40;;;;;;678076;29;887;-83
2021/12/12 01:48:14;;;;;;;;;;;20.70;49.90;;;;;;675343;29;1227;-83
2021/12/12 01:48:44;;;;;;;;;;;20.70;50.10;;;;;;675455;29;957;-83
2021/12/12 01:49:10;;;;;;;;;;;20.70;50.10;;;;;;675323;29;1395;-83
2021/12/12 01:49:31;;;;;;;;;;;20.70;50.00;;;;;;675293;29;1378;-85
2021/12/12 01:49:54;;;;;;;;;;;20.70;50.10;;;;;;673212;29;1161;-85
2021/12/12 01:50:21;;;;;;;;;;;20.70;49.90;;;;;;675293;29;1958;-84
2021/12/12 01:50:43;;;;;;;;;;;20.70;49.90;;;;;;675375;29;829;-84
2021/12/12 01:51:07;;;;;;;;;;;20.70;49.80;;;;;;675341;29;844;-85
2021/12/12 01:51:28;;;;;;;;;;;20.80;49.80;;;;;;675281;29;1093;-83
2021/12/12 01:51:50;;;;;;;;;;;20.70;49.70;;;;;;677490;29;867;-83
2021/12/12 01:52:12;;;;;;;;;;;20.80;49.70;;;;;;678128;29;827;-83
2021/12/12 01:52:33;;;;;;;;;;;20.80;49.70;;;;;;677912;29;840;-83
2021/12/12 01:52:54;;;;;;;;;;;20.80;49.60;;;;;;674176;29;1148;-84
2021/12/12 01:53:16;;;;;;;;;;;20.80;49.60;;;;;;673570;29;860;-83
2021/12/12 01:53:39;;;;;;;;;;;20.80;49.60;;;;;;675651;29;903;-83
2021/12/12 01:54:01;;;;;;;;;;;20.80;49.60;;;;;;675218;29;1155;-84
2021/12/12 01:54:26;;;;;;;;;;;20.80;49.50;;;;;;675424;29;848;-83
2021/12/12 01:54:48;;;;;;;;;;;20.80;49.50;;;;;;676932;29;804;-83
2021/12/12 01:55:21;;;;;;;;;;;20.80;49.50;;;;;;677966;29;2081;-83
2021/12/12 01:55:54;;;;;;;;;;;20.90;49.40;;;;;;678109;29;969;-84
2021/12/12 01:56:20;;;;;;;;;;;20.90;49.40;;;;;;678337;29;796;-83
2021/12/12 01:56:49;;;;;;;;;;;20.90;49.30;;;;;;678923;29;879;-84
2021/12/12 01:57:11;;;;;;;;;;;20.90;49.30;;;;;;676778;29;1217;-83
2021/12/12 01:57:34;;;;;;;;;;;20.90;49.20;;;;;;676721;29;1397;-84
2021/12/12 01:57:56;;;;;;;;;;;20.90;49.10;;;;;;677040;29;1197;-84
2021/12/12 01:58:19;;;;;;;;;;;20.90;49.10;;;;;;677370;29;1054;-82
2021/12/12 01:58:41;;;;;;;;;;;21.00;49.10;;;;;;677351;29;1211;-83
2021/12/12 01:59:05;;;;;;;;;;;21.00;49.00;;;;;;678839;29;974;-83
2021/12/12 01:59:34;;;;;;;;;;;20.90;48.90;;;;;;680173;29;990;-83
2021/12/12 01:59:57;;;;;;;;;;;20.90;48.90;;;;;;679694;29;998;-83
2021/12/12 02:00:21;;;;;;;;;;;21.00;49.00;;;;;;679561;29;1215;-83
2021/12/12 02:00:49;;;;;;;;;;;21.00;48.90;;;;;;679256;29;1460;-84
2021/12/12 02:01:17;;;;;;;;;;;21.00;48.80;;;;;;677003;29;945;-84
2021/12/12 02:01:45;;;;;;;;;;;21.00;48.70;;;;;;676546;29;907;-82
2021/12/12 02:02:15;;;;;;;;;;;21.00;48.70;;;;;;676229;29;1145;-84
2021/12/12 02:02:35;;;;;;;;;;;21.00;48.70;;;;;;676034;29;856;-83
2021/12/12 02:02:57;;;;;;;;;;;21.00;48.70;;;;;;676977;29;947;-83
2021/12/12 02:03:20;;;;;;;;;;;21.00;48.60;;;;;;678935;29;1045;-83
2021/12/12 02:03:45;;;;;;;;;;;21.00;48.60;;;;;;678632;29;1026;-84
2021/12/12 02:04:26;;;;;;;;;;;21.00;48.60;;;;;;678481;29;1361;-83
2021/12/12 02:04:51;;;;;;;;;;;21.00;48.50;;;;;;678235;29;1180;-83
2021/12/12 02:05:13;;;;;;;;;;;21.00;48.60;;;;;;675725;29;1526;-83
2021/12/12 02:05:36;;;;;;;;;;;21.00;48.50;;;;;;675909;29;887;-85
2021/12/12 02:05:57;;;;;;;;;;;21.00;48.60;;;;;;675439;29;792;-84
2021/12/12 02:06:20;;;;;;;;;;;21.00;48.50;;;;;;676127;29;1091;-85
2021/12/12 02:06:44;;;;;;;;;;;21.00;48.40;;;;;;675765;29;1462;-84
2021/12/12 02:07:06;;;;;;;;;;;21.00;49.50;;;;;;674524;29;1543;-83
2021/12/12 02:07:31;;;;;;;;;;;21.00;48.40;;;;;;675339;29;1733;-84
2021/12/12 02:07:54;;;;;;;;;;;21.10;48.40;;;;;;675441;29;855;-84
2021/12/12 02:08:16;;;;;;;;;;;21.10;48.40;;;;;;675217;29;960;-84
2021/12/12 02:08:38;;;;;;;;;;;21.00;48.30;;;;;;675353;29;1123;-84
2021/12/12 02:09:00;;;;;;;;;;;21.10;48.30;;;;;;675401;29;768;-84
2021/12/12 02:09:22;;;;;;;;;;;21.10;48.40;;;;;;675337;29;784;-84
2021/12/12 02:09:43;;;;;;;;;;;21.10;48.40;;;;;;675292;29;847;-83
2021/12/12 02:10:07;;;;;;;;;;;21.10;48.30;;;;;;673611;29;1084;-84
2021/12/12 02:10:30;;;;;;;;;;;21.10;48.30;;;;;;675125;29;1887;-84
2021/12/12 02:10:55;;;;;;;;;;;21.10;48.20;;;;;;675359;29;931;-83
2021/12/12 02:11:17;;;;;;;;;;;21.10;48.20;;;;;;675339;29;993;-84
2021/12/12 02:11:39;;;;;;;;;;;21.10;48.10;;;;;;675328;29;1239;-83
2021/12/12 02:12:01;;;;;;;;;;;21.10;48.20;;;;;;677259;29;926;-84
2021/12/12 02:12:23;;;;;;;;;;;21.10;48.10;;;;;;677860;29;807;-84
2021/12/12 02:12:44;;;;;;;;;;;21.10;48.10;;;;;;677911;29;835;-84
2021/12/12 02:13:06;;;;;;;;;;;21.10;48.20;;;;;;677831;29;1347;-84
2021/12/12 02:13:28;;;;;;;;;;;21.10;48.10;;;;;;677953;29;1174;-84
2021/12/12 02:13:50;;;;;;;;;;;21.10;48.20;;;;;;677881;29;851;-85
2021/12/12 02:14:12;;;;;;;;;;;21.10;47.90;;;;;;677999;29;855;-85
2021/12/12 02:14:35;;;;;;;;;;;21.10;48.00;;;;;;677891;29;811;-84
2021/12/12 02:14:57;;;;;;;;;;;21.10;48.00;;;;;;677728;29;1336;-83
2021/12/12 02:15:18;;;;;;;;;;;21.10;48.00;;;;;;675180;29;1179;-84
2021/12/12 02:15:39;;;;;;;;;;;21.10;48.00;;;;;;675406;29;839;-84
2021/12/12 02:16:01;;;;;;;;;;;21.10;48.00;;;;;;675322;29;859;-84
2021/12/12 02:16:22;;;;;;;;;;;21.10;47.90;;;;;;675252;29;890;-84
2021/12/12 02:16:48;;;;;;;;;;;21.10;47.90;;;;;;673766;29;1136;-84
2021/12/12 02:17:17;;;;;;;;;;;21.10;48.00;;;;;;671358;29;840;-84
2021/12/12 02:17:42;;;;;;;;;;;21.10;47.90;;;;;;672885;29;831;-83
2021/12/12 02:18:07;;;;;;;;;;;21.10;47.90;;;;;;672665;29;859;-84
2021/12/12 02:18:35;;;;;;;;;;;21.10;47.90;;;;;;672754;29;867;-84
2021/12/12 02:18:58;;;;;;;;;;;21.10;47.90;;;;;;673499;29;863;-84
2021/12/12 02:19:27;;;;;;;;;;;21.10;47.90;;;;;;672633;29;1529;-84
2021/12/12 02:21:05;;;;;;;;;;;21.10;47.80;;;;;;667626;29;811;-83
2021/12/12 02:21:32;;;;;;;;;;;21.10;47.80;;;;;;671980;29;1235;-85
2021/12/12 02:22:07;;;;;;;;;;;21.10;47.70;;;;;;677784;29;1519;-84
2021/12/12 02:22:57;;;;;;;;;;;21.10;47.80;;;;;;675164;29;1150;-84
2021/12/12 02:35:52;;;;;;;;;;;20.90;47.60;;;;;;680437;29;1646;-83
2021/12/12 02:36:00;;;;;;;;;;;20.90;47.60;;;;;;683208;29;621;-84
2021/12/12 02:36:16;;;;;;;;;;;20.90;47.60;;;;;;679227;29;1662;-83
2021/12/12 02:36:37;;;;;;;;;;;20.90;47.60;;;;;;680431;29;855;-83
2021/12/12 02:36:59;;;;;;;;;;;20.90;47.60;;;;;;680418;29;1426;-83
2021/12/12 02:37:20;;;;;;;;;;;20.90;47.70;;;;;;680415;29;1144;-83
2021/12/12 02:37:41;;;;;;;;;;;20.90;47.60;;;;;;680454;29;1282;-84
2021/12/12 02:38:02;;;;;;;;;;;20.90;47.70;;;;;;681547;29;847;-84
2021/12/12 02:38:26;;;;;;;;;;;20.90;47.80;;;;;;682379;29;1071;-84
2021/12/12 02:38:50;;;;;;;;;;;20.80;47.60;;;;;;677731;29;1322;-84
2021/12/12 02:39:15;;;;;;;;;;;20.80;47.60;;;;;;679126;29;1292;-84
2021/12/12 02:39:37;;;;;;;;;;;20.80;47.60;;;;;;680436;29;1116;-83